sensor_id;sensor_type;location;lat;lon;timestamp;P1;durP1;ratioP1;P2;durP2;ratioP2
40815;SDS011;26535;48.788;9.214;2023-06-19T05:03:39;3.67;;;2.10;;
40815;SDS011;26535;48.788;9.214;2023-06-19T05:06:08;3.50;;;2.20;;
40815;SDS011;26535;48.788;9.214;2023-06-19T05:08:34;3.80;;;2.35;;
40815;SDS011;26535;48.788;9.214;2023-06-19T05:10:59;3.20;;;2.25;;
40815;SDS011;26535;48.788;9.214;2023-06-19T05:13:25;3.95;;;2.25;;
40815;SDS011;26535;48.788;9.214;2023-06-19T05:15:51;4.68;;;2.47;;
40815;SDS011;26535;48.788;9.214;2023-06-19T05:18:17;3.90;;;2.58;;
40815;SDS011;26535;48.788;9.214;2023-06-19T05:20:43;5.30;;;2.33;;
40815;SDS011;26535;48.788;9.214;2023-06-19T05:23:09;3.60;;;2.40;;
40815;SDS011;26535;48.788;9.214;2023-06-19T05:25:34;3.97;;;2.30;;
40815;SDS011;26535;48.788;9.214;2023-06-19T05:28:00;4.03;;;2.10;;
40815;SDS011;26535;48.788;9.214;2023-06-19T05:30:26;4.30;;;2.70;;
40815;SDS011;26535;48.788;9.214;2023-06-19T05:32:51;3.78;;;2.08;;
40815;SDS011;26535;48.788;9.214;2023-06-19T05:35:17;3.85;;;2.30;;
40815;SDS011;26535;48.788;9.214;2023-06-19T05:37:43;4.53;;;2.30;;
40815;SDS011;26535;48.788;9.214;2023-06-19T05:40:09;2.90;;;2.00;;
40815;SDS011;26535;48.788;9.214;2023-06-19T05:42:35;2.95;;;1.80;;
40815;SDS011;26535;48.788;9.214;2023-06-19T05:45:04;3.83;;;2.10;;
40815;SDS011;26535;48.788;9.214;2023-06-19T05:47:31;2.70;;;1.83;;
40815;SDS011;26535;48.788;9.214;2023-06-19T05:49:57;4.47;;;2.13;;
40815;SDS011;26535;48.788;9.214;2023-06-19T05:52:23;3.80;;;2.00;;
40815;SDS011;26535;48.788;9.214;2023-06-19T05:54:49;3.17;;;1.75;;
40815;SDS011;26535;48.788;9.214;2023-06-19T05:57:15;3.25;;;1.98;;
40815;SDS011;26535;48.788;9.214;2023-06-19T05:59:44;4.20;;;2.53;;
40815;SDS011;26535;48.788;9.214;2023-06-19T06:02:09;3.28;;;2.33;;
40815;SDS011;26535;48.788;9.214;2023-06-19T06:04:35;3.33;;;2.25;;
40815;SDS011;26535;48.788;9.214;2023-06-19T06:07:01;3.03;;;1.95;;
40815;SDS011;26535;48.788;9.214;2023-06-19T06:09:27;3.30;;;2.40;;
40815;SDS011;26535;48.788;9.214;2023-06-19T06:11:52;2.72;;;2.03;;
40815;SDS011;26535;48.788;9.214;2023-06-19T06:14:18;4.38;;;2.25;;
40815;SDS011;26535;48.788;9.214;2023-06-19T06:16:44;4.78;;;2.45;;
40815;SDS011;26535;48.788;9.214;2023-06-19T06:19:09;3.67;;;2.28;;
40815;SDS011;26535;48.788;9.214;2023-06-19T06:21:35;3.38;;;2.17;;
40815;SDS011;26535;48.788;9.214;2023-06-19T06:24:01;3.60;;;2.38;;
40815;SDS011;26535;48.788;9.214;2023-06-19T06:26:27;4.57;;;2.50;;
40815;SDS011;26535;48.788;9.214;2023-06-19T06:28:53;3.55;;;2.28;;
40815;SDS011;26535;48.788;9.214;2023-06-19T06:31:21;3.40;;;2.38;;
40815;SDS011;26535;48.788;9.214;2023-06-19T06:33:48;3.10;;;2.00;;
40815;SDS011;26535;48.788;9.214;2023-06-19T06:36:16;3.13;;;2.15;;
40815;SDS011;26535;48.788;9.214;2023-06-19T06:38:44;2.72;;;1.92;;
40815;SDS011;26535;48.788;9.214;2023-06-19T06:41:10;3.17;;;1.88;;
40815;SDS011;26535;48.788;9.214;2023-06-19T06:43:35;3.78;;;2.00;;
40815;SDS011;26535;48.788;9.214;2023-06-19T06:46:01;2.90;;;1.77;;
40815;SDS011;26535;48.788;9.214;2023-06-19T06:48:27;2.95;;;1.58;;
40815;SDS011;26535;48.788;9.214;2023-06-19T06:50:52;3.55;;;1.80;;
40815;SDS011;26535;48.788;9.214;2023-06-19T06:53:24;3.22;;;1.50;;
40815;SDS011;26535;48.788;9.214;2023-06-19T06:55:51;2.20;;;1.33;;
40815;SDS011;26535;48.788;9.214;2023-06-19T06:58:17;2.05;;;1.40;;
40815;SDS011;26535;48.788;9.214;2023-06-19T07:00:43;1.90;;;1.30;;
40815;SDS011;26535;48.788;9.214;2023-06-19T07:03:10;2.42;;;1.60;;
40815;SDS011;26535;48.788;9.214;2023-06-19T07:05:36;3.30;;;1.30;;
40815;SDS011;26535;48.788;9.214;2023-06-19T07:08:01;3.08;;;1.60;;
40815;SDS011;26535;48.788;9.214;2023-06-19T07:10:29;3.45;;;1.70;;
40815;SDS011;26535;48.788;9.214;2023-06-19T07:12:55;3.55;;;1.80;;
40815;SDS011;26535;48.788;9.214;2023-06-19T07:15:20;2.75;;;1.50;;
40815;SDS011;26535;48.788;9.214;2023-06-19T07:17:46;2.15;;;1.45;;
40815;SDS011;26535;48.788;9.214;2023-06-19T07:20:12;2.50;;;1.50;;
40815;SDS011;26535;48.788;9.214;2023-06-19T07:22:39;2.33;;;1.30;;
40815;SDS011;26535;48.788;9.214;2023-06-19T07:25:05;2.75;;;1.30;;
40815;SDS011;26535;48.788;9.214;2023-06-19T07:27:31;2.15;;;1.30;;
40815;SDS011;26535;48.788;9.214;2023-06-19T07:29:57;2.38;;;1.10;;
40815;SDS011;26535;48.788;9.214;2023-06-19T07:32:23;3.03;;;1.20;;
40815;SDS011;26535;48.788;9.214;2023-06-19T07:34:49;2.00;;;1.30;;
40815;SDS011;26535;48.788;9.214;2023-06-19T07:37:14;4.15;;;1.38;;
40815;SDS011;26535;48.788;9.214;2023-06-19T07:39:46;2.60;;;1.40;;
40815;SDS011;26535;48.788;9.214;2023-06-19T07:42:16;4.70;;;1.50;;
40815;SDS011;26535;48.788;9.214;2023-06-19T07:44:43;2.45;;;1.38;;
40815;SDS011;26535;48.788;9.214;2023-06-19T07:47:10;3.10;;;1.48;;
40815;SDS011;26535;48.788;9.214;2023-06-19T07:49:36;2.33;;;1.30;;
40815;SDS011;26535;48.788;9.214;2023-06-19T07:52:02;3.63;;;1.42;;
40815;SDS011;26535;48.788;9.214;2023-06-19T07:54:29;2.58;;;1.50;;
40815;SDS011;26535;48.788;9.214;2023-06-19T07:56:55;2.45;;;1.45;;
40815;SDS011;26535;48.788;9.214;2023-06-19T07:59:21;1.73;;;1.13;;
40815;SDS011;26535;48.788;9.214;2023-06-19T08:01:47;2.42;;;1.20;;
40815;SDS011;26535;48.788;9.214;2023-06-19T08:04:13;3.10;;;1.60;;
40815;SDS011;26535;48.788;9.214;2023-06-19T08:06:39;3.10;;;1.60;;
40815;SDS011;26535;48.788;9.214;2023-06-19T08:09:05;2.60;;;1.55;;
40815;SDS011;26535;48.788;9.214;2023-06-19T08:11:31;2.92;;;1.60;;
40815;SDS011;26535;48.788;9.214;2023-06-19T08:13:56;2.47;;;1.20;;
40815;SDS011;26535;48.788;9.214;2023-06-19T08:16:24;3.03;;;1.65;;
40815;SDS011;26535;48.788;9.214;2023-06-19T08:18:51;2.72;;;1.40;;
40815;SDS011;26535;48.788;9.214;2023-06-19T08:21:16;3.17;;;1.65;;
40815;SDS011;26535;48.788;9.214;2023-06-19T08:23:42;3.00;;;1.42;;
40815;SDS011;26535;48.788;9.214;2023-06-19T08:26:09;4.35;;;1.60;;
40815;SDS011;26535;48.788;9.214;2023-06-19T08:28:35;2.20;;;1.10;;
40815;SDS011;26535;48.788;9.214;2023-06-19T08:31:02;3.30;;;1.70;;
40815;SDS011;26535;48.788;9.214;2023-06-19T08:33:27;2.95;;;1.60;;
40815;SDS011;26535;48.788;9.214;2023-06-19T08:35:53;2.50;;;1.60;;
40815;SDS011;26535;48.788;9.214;2023-06-19T08:38:19;2.80;;;1.40;;
40815;SDS011;26535;48.788;9.214;2023-06-19T08:40:44;4.25;;;1.85;;
40815;SDS011;26535;48.788;9.214;2023-06-19T08:43:10;3.35;;;1.63;;
40815;SDS011;26535;48.788;9.214;2023-06-19T08:45:36;3.20;;;1.70;;
40815;SDS011;26535;48.788;9.214;2023-06-19T08:48:03;3.88;;;1.90;;
40815;SDS011;26535;48.788;9.214;2023-06-19T08:50:35;3.38;;;1.70;;
40815;SDS011;26535;48.788;9.214;2023-06-19T08:53:01;4.25;;;2.10;;
40815;SDS011;26535;48.788;9.214;2023-06-19T08:55:26;3.15;;;1.70;;
40815;SDS011;26535;48.788;9.214;2023-06-19T08:57:52;2.45;;;1.65;;
40815;SDS011;26535;48.788;9.214;2023-06-19T09:00:25;2.58;;;1.50;;
40815;SDS011;26535;48.788;9.214;2023-06-19T09:02:52;3.88;;;2.10;;
40815;SDS011;26535;48.788;9.214;2023-06-19T09:05:25;2.88;;;1.60;;
40815;SDS011;26535;48.788;9.214;2023-06-19T09:07:55;2.22;;;1.38;;
40815;SDS011;26535;48.788;9.214;2023-06-19T09:10:23;4.28;;;2.13;;
40815;SDS011;26535;48.788;9.214;2023-06-19T09:15:41;2.30;;;1.52;;
40815;SDS011;26535;48.788;9.214;2023-06-19T09:18:07;5.68;;;1.75;;
40815;SDS011;26535;48.788;9.214;2023-06-19T09:20:36;3.08;;;2.03;;
40815;SDS011;26535;48.788;9.214;2023-06-19T09:23:05;5.20;;;2.03;;
40815;SDS011;26535;48.788;9.214;2023-06-19T09:25:31;3.13;;;1.77;;
40815;SDS011;26535;48.788;9.214;2023-06-19T09:27:57;2.38;;;1.58;;
40815;SDS011;26535;48.788;9.214;2023-06-19T09:30:23;2.72;;;1.60;;
40815;SDS011;26535;48.788;9.214;2023-06-19T09:32:49;3.40;;;1.73;;
40815;SDS011;26535;48.788;9.214;2023-06-19T09:35:14;3.40;;;1.85;;
40815;SDS011;26535;48.788;9.214;2023-06-19T09:37:40;2.58;;;1.55;;
40815;SDS011;26535;48.788;9.214;2023-06-19T09:40:06;3.22;;;1.98;;
40815;SDS011;26535;48.788;9.214;2023-06-19T09:42:42;2.50;;;1.70;;
40815;SDS011;26535;48.788;9.214;2023-06-19T09:45:17;3.22;;;1.90;;
40815;SDS011;26535;48.788;9.214;2023-06-19T09:47:46;4.45;;;1.83;;
40815;SDS011;26535;48.788;9.214;2023-06-19T09:50:14;3.00;;;1.80;;
40815;SDS011;26535;48.788;9.214;2023-06-19T09:52:41;2.83;;;1.83;;
40815;SDS011;26535;48.788;9.214;2023-06-19T09:55:08;4.03;;;1.83;;
40815;SDS011;26535;48.788;9.214;2023-06-19T09:57:38;3.08;;;1.90;;
40815;SDS011;26535;48.788;9.214;2023-06-19T10:00:05;3.42;;;2.10;;
40815;SDS011;26535;48.788;9.214;2023-06-19T10:02:44;5.60;;;2.13;;
40815;SDS011;26535;48.788;9.214;2023-06-19T10:05:11;5.75;;;2.05;;
40815;SDS011;26535;48.788;9.214;2023-06-19T10:07:41;3.72;;;2.10;;
40815;SDS011;26535;48.788;9.214;2023-06-19T10:10:09;8.15;;;2.40;;
40815;SDS011;26535;48.788;9.214;2023-06-19T10:12:56;2.60;;;1.73;;
40815;SDS011;26535;48.788;9.214;2023-06-19T10:15:27;3.33;;;2.00;;
40815;SDS011;26535;48.788;9.214;2023-06-19T10:18:01;3.33;;;1.75;;
40815;SDS011;26535;48.788;9.214;2023-06-19T10:20:40;7.00;;;2.60;;
40815;SDS011;26535;48.788;9.214;2023-06-19T10:25:46;5.18;;;2.25;;
40815;SDS011;26535;48.788;9.214;2023-06-19T10:33:18;2.88;;;1.92;;
40815;SDS011;26535;48.788;9.214;2023-06-19T10:35:44;3.53;;;2.38;;
40815;SDS011;26535;48.788;9.214;2023-06-19T10:38:10;3.05;;;2.30;;
40815;SDS011;26535;48.788;9.214;2023-06-19T10:40:36;4.72;;;2.40;;
40815;SDS011;26535;48.788;9.214;2023-06-19T10:43:02;3.92;;;2.17;;
40815;SDS011;26535;48.788;9.214;2023-06-19T10:45:29;4.78;;;2.50;;
40815;SDS011;26535;48.788;9.214;2023-06-19T10:47:55;4.85;;;2.47;;
40815;SDS011;26535;48.788;9.214;2023-06-19T10:50:21;3.42;;;2.38;;
40815;SDS011;26535;48.788;9.214;2023-06-19T10:52:48;5.15;;;2.92;;
40815;SDS011;26535;48.788;9.214;2023-06-19T10:55:14;3.28;;;2.25;;
40815;SDS011;26535;48.788;9.214;2023-06-19T10:57:40;4.63;;;2.30;;
40815;SDS011;26535;48.788;9.214;2023-06-19T11:00:10;4.97;;;2.53;;
40815;SDS011;26535;48.788;9.214;2023-06-19T11:02:42;3.60;;;2.28;;
40815;SDS011;26535;48.788;9.214;2023-06-19T11:05:09;7.00;;;2.33;;
40815;SDS011;26535;48.788;9.214;2023-06-19T11:07:36;8.77;;;2.65;;
40815;SDS011;26535;48.788;9.214;2023-06-19T11:10:02;2.72;;;2.20;;
40815;SDS011;26535;48.788;9.214;2023-06-19T11:12:30;3.67;;;2.05;;
40815;SDS011;26535;48.788;9.214;2023-06-19T11:14:57;2.60;;;1.95;;
40815;SDS011;26535;48.788;9.214;2023-06-19T11:17:23;4.22;;;2.17;;
40815;SDS011;26535;48.788;9.214;2023-06-19T11:19:50;3.10;;;2.15;;
40815;SDS011;26535;48.788;9.214;2023-06-19T11:22:16;4.00;;;2.25;;
40815;SDS011;26535;48.788;9.214;2023-06-19T11:24:48;5.05;;;2.40;;
40815;SDS011;26535;48.788;9.214;2023-06-19T11:27:20;5.03;;;2.28;;
40815;SDS011;26535;48.788;9.214;2023-06-19T11:29:58;3.40;;;2.00;;
40815;SDS011;26535;48.788;9.214;2023-06-19T11:32:30;3.90;;;2.40;;
40815;SDS011;26535;48.788;9.214;2023-06-19T11:34:57;3.45;;;2.10;;
40815;SDS011;26535;48.788;9.214;2023-06-19T11:37:23;3.17;;;2.25;;
40815;SDS011;26535;48.788;9.214;2023-06-19T11:39:49;4.30;;;2.00;;
40815;SDS011;26535;48.788;9.214;2023-06-19T11:42:18;3.60;;;2.13;;
40815;SDS011;26535;48.788;9.214;2023-06-19T11:44:57;4.07;;;2.00;;
40815;SDS011;26535;48.788;9.214;2023-06-19T11:47:29;4.60;;;2.15;;
40815;SDS011;26535;48.788;9.214;2023-06-19T11:49:56;2.60;;;2.00;;
40815;SDS011;26535;48.788;9.214;2023-06-19T11:52:22;4.68;;;2.20;;
40815;SDS011;26535;48.788;9.214;2023-06-19T11:54:47;5.80;;;2.10;;
40815;SDS011;26535;48.788;9.214;2023-06-19T11:57:13;3.38;;;2.05;;
40815;SDS011;26535;48.788;9.214;2023-06-19T11:59:39;3.75;;;2.15;;
40815;SDS011;26535;48.788;9.214;2023-06-19T12:02:05;5.53;;;2.00;;
40815;SDS011;26535;48.788;9.214;2023-06-19T12:04:31;2.92;;;2.15;;
40815;SDS011;26535;48.788;9.214;2023-06-19T12:06:57;3.63;;;1.98;;
40815;SDS011;26535;48.788;9.214;2023-06-19T12:09:24;4.10;;;2.00;;
40815;SDS011;26535;48.788;9.214;2023-06-19T12:11:49;4.63;;;2.15;;
40815;SDS011;26535;48.788;9.214;2023-06-19T12:14:15;4.63;;;2.40;;
40815;SDS011;26535;48.788;9.214;2023-06-19T12:16:41;4.90;;;2.03;;
40815;SDS011;26535;48.788;9.214;2023-06-19T12:19:07;3.05;;;2.05;;
40815;SDS011;26535;48.788;9.214;2023-06-19T12:21:32;3.72;;;2.10;;
40815;SDS011;26535;48.788;9.214;2023-06-19T12:23:58;4.28;;;2.25;;
40815;SDS011;26535;48.788;9.214;2023-06-19T12:26:24;4.15;;;2.50;;
40815;SDS011;26535;48.788;9.214;2023-06-19T12:28:50;4.22;;;2.40;;
40815;SDS011;26535;48.788;9.214;2023-06-19T12:31:17;4.53;;;2.30;;
40815;SDS011;26535;48.788;9.214;2023-06-19T12:33:43;4.30;;;1.95;;
40815;SDS011;26535;48.788;9.214;2023-06-19T12:36:12;3.13;;;1.90;;
40815;SDS011;26535;48.788;9.214;2023-06-19T12:38:39;4.05;;;2.30;;
40815;SDS011;26535;48.788;9.214;2023-06-19T12:41:05;5.70;;;2.38;;
40815;SDS011;26535;48.788;9.214;2023-06-19T12:43:31;3.05;;;2.05;;
40815;SDS011;26535;48.788;9.214;2023-06-19T12:45:57;3.70;;;2.35;;
40815;SDS011;26535;48.788;9.214;2023-06-19T12:48:24;3.05;;;1.83;;
40815;SDS011;26535;48.788;9.214;2023-06-19T12:50:51;5.82;;;2.20;;
40815;SDS011;26535;48.788;9.214;2023-06-19T12:53:17;8.05;;;2.60;;
40815;SDS011;26535;48.788;9.214;2023-06-19T12:55:42;2.85;;;1.92;;
40815;SDS011;26535;48.788;9.214;2023-06-19T12:58:08;5.32;;;2.10;;
40815;SDS011;26535;48.788;9.214;2023-06-19T13:00:34;3.40;;;1.80;;
40815;SDS011;26535;48.788;9.214;2023-06-19T13:03:00;5.10;;;2.38;;
40815;SDS011;26535;48.788;9.214;2023-06-19T13:05:25;5.18;;;3.00;;
40815;SDS011;26535;48.788;9.214;2023-06-19T13:07:51;6.22;;;5.25;;
40815;SDS011;26535;48.788;9.214;2023-06-19T13:10:17;4.93;;;2.35;;
40815;SDS011;26535;48.788;9.214;2023-06-19T13:12:43;3.08;;;2.17;;
40815;SDS011;26535;48.788;9.214;2023-06-19T13:15:09;3.53;;;2.42;;
40815;SDS011;26535;48.788;9.214;2023-06-19T13:17:34;3.00;;;1.90;;
40815;SDS011;26535;48.788;9.214;2023-06-19T13:20:00;4.95;;;2.20;;
40815;SDS011;26535;48.788;9.214;2023-06-19T13:22:26;2.42;;;1.83;;
40815;SDS011;26535;48.788;9.214;2023-06-19T13:24:52;7.78;;;3.50;;
40815;SDS011;26535;48.788;9.214;2023-06-19T13:27:18;3.08;;;1.85;;
40815;SDS011;26535;48.788;9.214;2023-06-19T13:29:47;5.28;;;2.55;;
40815;SDS011;26535;48.788;9.214;2023-06-19T13:32:15;3.63;;;2.25;;
40815;SDS011;26535;48.788;9.214;2023-06-19T13:34:41;3.45;;;1.80;;
40815;SDS011;26535;48.788;9.214;2023-06-19T13:37:07;4.20;;;1.70;;
40815;SDS011;26535;48.788;9.214;2023-06-19T13:39:34;4.60;;;1.80;;
40815;SDS011;26535;48.788;9.214;2023-06-19T13:42:00;5.22;;;1.83;;
40815;SDS011;26535;48.788;9.214;2023-06-19T13:44:29;3.03;;;1.88;;
40815;SDS011;26535;48.788;9.214;2023-06-19T13:46:54;3.10;;;1.70;;
40815;SDS011;26535;48.788;9.214;2023-06-19T13:49:20;2.55;;;1.70;;
40815;SDS011;26535;48.788;9.214;2023-06-19T13:51:46;3.72;;;1.75;;
40815;SDS011;26535;48.788;9.214;2023-06-19T13:54:12;3.88;;;1.95;;
40815;SDS011;26535;48.788;9.214;2023-06-19T13:56:40;4.20;;;1.85;;
40815;SDS011;26535;48.788;9.214;2023-06-19T13:59:07;2.65;;;2.00;;
40815;SDS011;26535;48.788;9.214;2023-06-19T14:01:33;3.80;;;1.90;;
40815;SDS011;26535;48.788;9.214;2023-06-19T14:03:59;5.88;;;2.05;;
40815;SDS011;26535;48.788;9.214;2023-06-19T14:06:25;4.13;;;1.83;;
40815;SDS011;26535;48.788;9.214;2023-06-19T14:08:50;2.97;;;1.80;;
40815;SDS011;26535;48.788;9.214;2023-06-19T14:11:17;2.55;;;1.65;;
40815;SDS011;26535;48.788;9.214;2023-06-19T14:13:43;3.13;;;1.85;;
40815;SDS011;26535;48.788;9.214;2023-06-19T14:16:09;2.95;;;1.88;;
40815;SDS011;26535;48.788;9.214;2023-06-19T14:18:35;4.28;;;2.13;;
40815;SDS011;26535;48.788;9.214;2023-06-19T14:21:02;2.58;;;1.55;;
40815;SDS011;26535;48.788;9.214;2023-06-19T14:23:28;2.53;;;1.33;;
40815;SDS011;26535;48.788;9.214;2023-06-19T14:25:54;4.60;;;2.47;;
40815;SDS011;26535;48.788;9.214;2023-06-19T14:28:19;4.05;;;1.98;;
40815;SDS011;26535;48.788;9.214;2023-06-19T14:30:45;2.42;;;1.48;;
40815;SDS011;26535;48.788;9.214;2023-06-19T14:33:11;7.15;;;2.10;;
40815;SDS011;26535;48.788;9.214;2023-06-19T14:35:42;2.17;;;1.65;;
40815;SDS011;26535;48.788;9.214;2023-06-19T14:38:14;2.45;;;1.67;;
40815;SDS011;26535;48.788;9.214;2023-06-19T14:40:43;5.80;;;4.63;;
40815;SDS011;26535;48.788;9.214;2023-06-19T14:43:09;2.40;;;1.75;;
40815;SDS011;26535;48.788;9.214;2023-06-19T14:45:35;4.30;;;2.10;;
40815;SDS011;26535;48.788;9.214;2023-06-19T14:48:01;2.65;;;1.70;;
40815;SDS011;26535;48.788;9.214;2023-06-19T14:50:27;2.03;;;1.63;;
40815;SDS011;26535;48.788;9.214;2023-06-19T14:52:53;3.70;;;1.90;;
40815;SDS011;26535;48.788;9.214;2023-06-19T14:55:19;2.80;;;1.75;;
40815;SDS011;26535;48.788;9.214;2023-06-19T14:57:44;3.42;;;1.85;;
40815;SDS011;26535;48.788;9.214;2023-06-19T15:00:10;2.50;;;2.05;;
40815;SDS011;26535;48.788;9.214;2023-06-19T15:02:36;3.60;;;2.22;;
40815;SDS011;26535;48.788;9.214;2023-06-19T15:05:02;4.45;;;2.03;;
40815;SDS011;26535;48.788;9.214;2023-06-19T15:07:28;5.97;;;2.42;;
40815;SDS011;26535;48.788;9.214;2023-06-19T15:09:54;3.33;;;2.00;;
40815;SDS011;26535;48.788;9.214;2023-06-19T15:12:19;2.72;;;2.17;;
40815;SDS011;26535;48.788;9.214;2023-06-19T15:14:45;3.33;;;2.00;;
40815;SDS011;26535;48.788;9.214;2023-06-19T15:17:11;3.10;;;1.80;;
40815;SDS011;26535;48.788;9.214;2023-06-19T15:19:36;3.80;;;2.10;;
40815;SDS011;26535;48.788;9.214;2023-06-19T15:22:02;3.08;;;2.17;;
40815;SDS011;26535;48.788;9.214;2023-06-19T15:24:28;8.13;;;2.22;;
40815;SDS011;26535;48.788;9.214;2023-06-19T15:26:53;3.42;;;1.80;;
40815;SDS011;26535;48.788;9.214;2023-06-19T15:29:20;3.72;;;2.55;;
40815;SDS011;26535;48.788;9.214;2023-06-19T15:31:46;3.30;;;2.20;;
40815;SDS011;26535;48.788;9.214;2023-06-19T15:34:11;2.65;;;2.10;;
40815;SDS011;26535;48.788;9.214;2023-06-19T15:36:37;3.85;;;1.90;;
40815;SDS011;26535;48.788;9.214;2023-06-19T15:39:03;2.80;;;1.70;;
40815;SDS011;26535;48.788;9.214;2023-06-19T15:41:28;4.15;;;1.83;;
40815;SDS011;26535;48.788;9.214;2023-06-19T15:43:54;2.47;;;1.90;;
40815;SDS011;26535;48.788;9.214;2023-06-19T15:46:20;3.45;;;1.90;;
40815;SDS011;26535;48.788;9.214;2023-06-19T15:48:46;2.08;;;1.63;;
40815;SDS011;26535;48.788;9.214;2023-06-19T15:51:12;2.53;;;2.00;;
40815;SDS011;26535;48.788;9.214;2023-06-19T15:53:38;3.08;;;1.95;;
40815;SDS011;26535;48.788;9.214;2023-06-19T15:56:06;2.55;;;2.13;;
40815;SDS011;26535;48.788;9.214;2023-06-19T15:58:32;3.45;;;2.22;;
40815;SDS011;26535;48.788;9.214;2023-06-19T16:00:58;3.53;;;2.13;;
40815;SDS011;26535;48.788;9.214;2023-06-19T16:03:24;3.15;;;2.20;;
40815;SDS011;26535;48.788;9.214;2023-06-19T16:05:51;3.17;;;2.27;;
40815;SDS011;26535;48.788;9.214;2023-06-19T16:08:20;3.33;;;2.28;;
40815;SDS011;26535;48.788;9.214;2023-06-19T16:10:48;3.65;;;2.00;;
40815;SDS011;26535;48.788;9.214;2023-06-19T16:13:14;3.70;;;2.25;;
40815;SDS011;26535;48.788;9.214;2023-06-19T16:15:40;5.45;;;2.30;;
40815;SDS011;26535;48.788;9.214;2023-06-19T16:18:06;4.28;;;2.20;;
40815;SDS011;26535;48.788;9.214;2023-06-19T16:20:32;3.67;;;2.00;;
40815;SDS011;26535;48.788;9.214;2023-06-19T16:22:58;2.88;;;2.20;;
40815;SDS011;26535;48.788;9.214;2023-06-19T16:25:23;2.45;;;2.10;;
40815;SDS011;26535;48.788;9.214;2023-06-19T16:27:49;2.88;;;2.20;;
40815;SDS011;26535;48.788;9.214;2023-06-19T16:30:15;3.40;;;2.00;;
40815;SDS011;26535;48.788;9.214;2023-06-19T16:32:41;4.03;;;2.40;;
40815;SDS011;26535;48.788;9.214;2023-06-19T16:35:07;3.17;;;1.98;;
40815;SDS011;26535;48.788;9.214;2023-06-19T16:37:33;4.70;;;2.58;;
40815;SDS011;26535;48.788;9.214;2023-06-19T16:39:59;4.85;;;2.63;;
40815;SDS011;26535;48.788;9.214;2023-06-19T16:42:25;8.38;;;3.00;;
40815;SDS011;26535;48.788;9.214;2023-06-19T16:44:51;4.95;;;2.50;;
40815;SDS011;26535;48.788;9.214;2023-06-19T16:47:17;4.87;;;2.60;;
40815;SDS011;26535;48.788;9.214;2023-06-19T16:49:43;4.97;;;2.83;;
40815;SDS011;26535;48.788;9.214;2023-06-19T16:52:09;3.80;;;2.92;;
40815;SDS011;26535;48.788;9.214;2023-06-19T16:54:35;3.55;;;2.60;;
40815;SDS011;26535;48.788;9.214;2023-06-19T16:57:01;4.30;;;2.85;;
40815;SDS011;26535;48.788;9.214;2023-06-19T16:59:26;4.07;;;2.95;;
40815;SDS011;26535;48.788;9.214;2023-06-19T17:01:52;4.55;;;2.80;;
40815;SDS011;26535;48.788;9.214;2023-06-19T17:04:18;4.80;;;2.78;;
40815;SDS011;26535;48.788;9.214;2023-06-19T17:06:44;5.35;;;3.10;;
40815;SDS011;26535;48.788;9.214;2023-06-19T17:09:10;4.82;;;2.92;;
40815;SDS011;26535;48.788;9.214;2023-06-19T17:11:36;3.88;;;2.80;;
40815;SDS011;26535;48.788;9.214;2023-06-19T17:14:02;4.13;;;3.15;;
40815;SDS011;26535;48.788;9.214;2023-06-19T17:16:28;4.95;;;3.35;;
40815;SDS011;26535;48.788;9.214;2023-06-19T17:18:54;5.32;;;3.50;;
40815;SDS011;26535;48.788;9.214;2023-06-19T17:21:21;6.22;;;3.42;;
40815;SDS011;26535;48.788;9.214;2023-06-19T17:23:46;6.85;;;3.22;;
40815;SDS011;26535;48.788;9.214;2023-06-19T17:26:12;4.72;;;3.13;;
40815;SDS011;26535;48.788;9.214;2023-06-19T17:28:38;4.50;;;3.33;;
40815;SDS011;26535;48.788;9.214;2023-06-19T17:31:04;5.10;;;3.10;;
40815;SDS011;26535;48.788;9.214;2023-06-19T17:33:32;5.80;;;3.50;;
40815;SDS011;26535;48.788;9.214;2023-06-19T17:35:58;5.45;;;3.35;;
40815;SDS011;26535;48.788;9.214;2023-06-19T17:38:24;6.35;;;3.53;;
40815;SDS011;26535;48.788;9.214;2023-06-19T17:40:50;3.85;;;3.03;;
40815;SDS011;26535;48.788;9.214;2023-06-19T17:43:17;4.60;;;2.78;;
40815;SDS011;26535;48.788;9.214;2023-06-19T17:45:42;5.75;;;3.05;;
40815;SDS011;26535;48.788;9.214;2023-06-19T17:48:08;4.15;;;3.20;;
40815;SDS011;26535;48.788;9.214;2023-06-19T17:50:34;4.88;;;3.20;;
40815;SDS011;26535;48.788;9.214;2023-06-19T17:53:00;4.60;;;2.70;;
40815;SDS011;26535;48.788;9.214;2023-06-19T17:55:25;5.40;;;3.33;;
40815;SDS011;26535;48.788;9.214;2023-06-19T17:57:51;4.88;;;3.38;;
40815;SDS011;26535;48.788;9.214;2023-06-19T18:00:17;5.28;;;2.83;;
40815;SDS011;26535;48.788;9.214;2023-06-19T18:02:43;5.72;;;2.70;;
40815;SDS011;26535;48.788;9.214;2023-06-19T18:05:10;4.05;;;2.90;;
40815;SDS011;26535;48.788;9.214;2023-06-19T18:07:36;5.57;;;2.63;;
40815;SDS011;26535;48.788;9.214;2023-06-19T18:10:02;4.90;;;2.80;;
40815;SDS011;26535;48.788;9.214;2023-06-19T18:12:28;4.97;;;2.45;;
40815;SDS011;26535;48.788;9.214;2023-06-19T18:14:54;6.20;;;2.90;;
40815;SDS011;26535;48.788;9.214;2023-06-19T18:17:20;3.92;;;2.83;;
40815;SDS011;26535;48.788;9.214;2023-06-19T18:19:45;5.60;;;3.10;;
40815;SDS011;26535;48.788;9.214;2023-06-19T18:22:11;3.38;;;2.58;;
40815;SDS011;26535;48.788;9.214;2023-06-19T18:24:37;4.45;;;2.80;;
40815;SDS011;26535;48.788;9.214;2023-06-19T18:27:03;3.22;;;2.47;;
40815;SDS011;26535;48.788;9.214;2023-06-19T18:29:30;4.05;;;3.00;;
40815;SDS011;26535;48.788;9.214;2023-06-19T18:31:56;4.40;;;2.80;;
40815;SDS011;26535;48.788;9.214;2023-06-19T18:34:23;5.30;;;2.72;;
40815;SDS011;26535;48.788;9.214;2023-06-19T18:36:49;3.97;;;3.00;;
40815;SDS011;26535;48.788;9.214;2023-06-19T18:39:15;4.55;;;2.72;;
40815;SDS011;26535;48.788;9.214;2023-06-19T18:41:40;4.82;;;2.97;;
40815;SDS011;26535;48.788;9.214;2023-06-19T18:44:10;4.55;;;3.00;;
40815;SDS011;26535;48.788;9.214;2023-06-19T18:46:36;4.22;;;2.90;;
40815;SDS011;26535;48.788;9.214;2023-06-19T18:49:01;6.07;;;4.32;;
40815;SDS011;26535;48.788;9.214;2023-06-19T18:51:27;4.20;;;3.20;;
40815;SDS011;26535;48.788;9.214;2023-06-19T18:53:53;4.78;;;3.78;;
40815;SDS011;26535;48.788;9.214;2023-06-19T18:56:19;4.82;;;3.33;;
40815;SDS011;26535;48.788;9.214;2023-06-19T18:58:45;4.40;;;3.15;;
40815;SDS011;26535;48.788;9.214;2023-06-19T19:01:10;4.82;;;3.42;;
40815;SDS011;26535;48.788;9.214;2023-06-19T19:03:37;5.18;;;3.35;;
40815;SDS011;26535;48.788;9.214;2023-06-19T19:06:04;5.45;;;4.45;;
40815;SDS011;26535;48.788;9.214;2023-06-19T19:08:30;10.98;;;4.05;;
40815;SDS011;26535;48.788;9.214;2023-06-19T19:10:55;4.50;;;3.63;;
40815;SDS011;26535;48.788;9.214;2023-06-19T19:13:21;4.70;;;3.63;;
40815;SDS011;26535;48.788;9.214;2023-06-19T19:15:47;5.15;;;3.88;;
40815;SDS011;26535;48.788;9.214;2023-06-19T19:18:13;5.13;;;3.97;;
40815;SDS011;26535;48.788;9.214;2023-06-19T19:20:39;6.30;;;4.00;;
40815;SDS011;26535;48.788;9.214;2023-06-19T19:23:04;8.18;;;5.70;;
40815;SDS011;26535;48.788;9.214;2023-06-19T19:25:30;7.43;;;5.45;;
40815;SDS011;26535;48.788;9.214;2023-06-19T19:27:57;5.85;;;4.43;;
40815;SDS011;26535;48.788;9.214;2023-06-19T19:30:23;7.47;;;5.93;;
40815;SDS011;26535;48.788;9.214;2023-06-19T19:32:49;8.88;;;5.75;;
40815;SDS011;26535;48.788;9.214;2023-06-19T19:35:15;6.43;;;4.22;;
40815;SDS011;26535;48.788;9.214;2023-06-19T19:37:40;15.32;;;11.10;;
40815;SDS011;26535;48.788;9.214;2023-06-19T19:40:06;6.00;;;4.55;;
40815;SDS011;26535;48.788;9.214;2023-06-19T19:42:32;7.00;;;4.55;;
40815;SDS011;26535;48.788;9.214;2023-06-19T19:44:58;6.43;;;4.38;;
40815;SDS011;26535;48.788;9.214;2023-06-19T19:47:24;5.13;;;4.20;;
40815;SDS011;26535;48.788;9.214;2023-06-19T19:49:49;6.90;;;4.07;;
40815;SDS011;26535;48.788;9.214;2023-06-19T19:52:19;5.47;;;4.18;;
40815;SDS011;26535;48.788;9.214;2023-06-19T19:54:48;7.30;;;4.50;;
40815;SDS011;26535;48.788;9.214;2023-06-19T19:57:14;7.28;;;4.53;;